Airfield :
LOGIN :

Register | Disclaimer

   EN    FR    IT 

 










Legend :    VFR   Marginal VFR   IFR   Intensive IFR   Very Intensive IFR
Visi :
Ceiling :
>= 8 km
>= 3000ft
5 to 8 km
1000 to 3000 ft
1500m to 5 km
500 to 1000 ft
800 to 1500m
200 to 500 ft
< 800m
< 200 ft
Symbols :   Thunderstorms  Fog  Heavy snow  Heavy precipitations  Wind > 20 kt
SIGMETs :     Misc.  Thunderstorms  Icing  Turbulence  Mountain Waves  Volcanic Ashes






- Airport Elevation : 3006 ft
- IATA code : LEN


LELN - Leon

CURRENT METAR :
  • 271600Z 17006KT 120V270 CAVOK 21/06 Q1020

EXPIRED METARs :
  • 271530Z 14003KT CAVOK 21/07 Q1020
  • 271500Z 23005KT 140V290 CAVOK 20/06 Q1021
  • 271430Z 17004KT 120V260 CAVOK 20/06 Q1021
  • 271400Z 11002KT CAVOK 20/06 Q1021
  • 271330Z 16006KT CAVOK 19/06 Q1021
  • 271300Z 17005KT 120V290 9999 FEW050 19/06 Q1021
  • 271230Z 13005KT 050V180 9999 FEW050 19/06 Q1021
  • 271200Z 20003KT 9999 FEW040 18/05 Q1022
  • 271130Z 08003KT 330V140 CAVOK 17/05 Q1022

TAF TAF LELN
Valid from the 27 at 15:00 until the 28 at 15:00 UTC


271400Z 2715/2815 VRB05KT CAVOK TX23/2815Z TN05/2805Z
PROB30
TEMPO 2716/2722 01010KT



MET'MAP, your aeronautical weather chart ! - Copyright ORBIFLY December 2007 - Disclaimer

ORBIFLY MET'MAP TEAM :

Programming & Development : Alexandra Zaïnal
Original concept : Baudouin d'Aumeries
Technical & hardware support : Manuel Goepfert
Assistance : Marc-Olivier Méhu




SOURCES & CREDITS :

   NOAA